logo
Search for airport 
image banner adimage banner adimage banner ad
image banner ad

HKML - Malindi

Located in Malindi, Kenya

ICAO - HKML, IATA - MYD

Data provided by Airmate  

General information

Coordinates: S3°13'23" E40°6'2"
Elevation is 88 feet MSL.
Magnetic variation is -1° East
View others Airports in Coast Province

Operational data

Special qualification required
Current time UTC:
Current local time:
Weather
METAR: HKML 180700Z 22010KT 9999 FEW019CB SCT090 30/24 Q1013
TAF: TAF HKML 180500Z 1806/1906 21010KT 9999 FEW020 SCT080 TEMPO 1807/1810 -RA SCT020 BKN080 BECMG 1900/1903 00000KT FEW018 SCT020
View NOTAMs / SUP AIP / TFR affecting this airport [VIEW]
Communications frequencies: [VIEW]

Runways:

RWY identifierQFULength (ft)Width (ft)SurfaceLDA (ft)
0877°343248ASPH3346
26257°343248ASPH3346
17169°460191ASPH4601
35349°460191ASPH4601

Airport contact information

Satellite view of HKML